Time;durP1;ratioP1;P1;durP2;ratioP2;P2;SDS_P1;SDS_P2;PMS_P1;PMS_P2;Temp;Humidity;BMP_temperature;BMP_pressure;BME280_temperature;BME280_humidity;BME280_pressure;Samples;Min_cycle;Max_cycle;Signal;HPM_P1;HPM_P2
2021/09/27 00:00:20;;;;;;;8.97;8.17;;;19.70;99.90;;;;;;5135407;27;20474;-62
2021/09/27 00:02:47;;;;;;;10.97;9.03;;;19.70;99.90;;;;;;5135998;27;20464;-62
2021/09/27 00:05:17;;;;;;;9.50;7.70;;;19.70;99.90;;;;;;5136293;27;20475;-62
2021/09/27 00:07:44;;;;;;;8.50;7.80;;;19.70;99.90;;;;;;5136096;27;20463;-62
2021/09/27 00:10:14;;;;;;;7.70;7.20;;;19.80;99.90;;;;;;5136108;27;20471;-62
2021/09/27 00:12:42;;;;;;;8.97;8.27;;;19.80;99.90;;;;;;5135858;27;20471;-62
2021/09/27 00:15:16;;;;;;;9.67;8.87;;;19.70;99.90;;;;;;5136358;27;20796;-62
2021/09/27 00:17:43;;;;;;;9.60;8.60;;;19.70;99.90;;;;;;5135627;27;20474;-62
2021/09/27 00:20:11;;;;;;;8.30;7.70;;;19.70;99.90;;;;;;5136222;27;20464;-62
2021/09/27 00:22:38;;;;;;;10.63;9.73;;;19.70;99.90;;;;;;5135623;27;20463;-62
2021/09/27 00:25:07;;;;;;;9.80;8.87;;;19.70;99.90;;;;;;5136051;27;20459;-62
2021/09/27 00:27:33;;;;;;;10.93;9.93;;;19.50;99.90;;;;;;5136108;27;20468;-62
2021/09/27 00:30:02;;;;;;;9.30;8.40;;;19.50;99.90;;;;;;5135237;27;20550;-62
2021/09/27 00:32:28;;;;;;;10.13;9.33;;;19.50;99.90;;;;;;5131622;27;20455;-62
2021/09/27 00:34:55;;;;;;;10.43;9.43;;;19.50;99.90;;;;;;5131282;27;20491;-62
2021/09/27 00:37:22;;;;;;;9.70;8.80;;;19.50;99.90;;;;;;5135785;27;20490;-62
2021/09/27 00:39:49;;;;;;;9.43;8.63;;;19.50;99.90;;;;;;5135300;27;20805;-62
2021/09/27 00:42:16;;;;;;;10.23;9.23;;;19.50;99.90;;;;;;5135614;27;20459;-62
2021/09/27 00:44:43;;;;;;;9.07;8.37;;;19.50;99.90;;;;;;5135460;27;20473;-62
2021/09/27 00:47:11;;;;;;;8.97;8.20;;;19.40;99.90;;;;;;5135335;27;20455;-62
2021/09/27 00:49:38;;;;;;;9.83;8.97;;;19.40;99.90;;;;;;5135563;27;20482;-62
2021/09/27 00:52:06;;;;;;;9.90;9.10;;;19.40;99.90;;;;;;5135304;27;20539;-62
2021/09/27 00:54:36;;;;;;;10.00;9.00;;;19.40;99.90;;;;;;5135714;27;20778;-62
2021/09/27 00:57:07;;;;;;;10.70;9.90;;;19.40;99.90;;;;;;5134822;27;20455;-62
2021/09/27 00:59:37;;;;;;;9.90;9.00;;;19.40;99.90;;;;;;5135285;27;20478;-62
2021/09/27 01:02:04;;;;;;;9.57;8.77;;;19.30;99.90;;;;;;5134801;27;20472;-62
2021/09/27 01:04:32;;;;;;;9.70;9.00;;;19.40;99.90;;;;;;5135243;27;20481;-62
2021/09/27 01:07:17;;;;;;;10.43;9.30;;;19.30;99.90;;;;;;5125844;27;20463;-62
2021/09/27 01:10:15;;;;;;;10.27;9.47;;;19.30;99.90;;;;;;5134870;27;20475;-62
2021/09/27 01:12:59;;;;;;;11.33;10.33;;;19.30;99.90;;;;;;5135182;27;20463;-62
2021/09/27 01:15:32;;;;;;;11.80;10.80;;;19.30;99.90;;;;;;5135172;27;20460;-61
2021/09/27 01:18:13;;;;;;;9.47;8.67;;;19.30;99.90;;;;;;5134993;27;20470;-62
2021/09/27 01:21:08;;;;;;;10.93;10.07;;;19.30;99.90;;;;;;5134646;27;20945;-62
2021/09/27 01:24:00;;;;;;;11.43;10.33;;;19.20;99.90;;;;;;5134521;27;20483;-62
2021/09/27 01:26:43;;;;;;;12.47;11.30;;;19.20;99.90;;;;;;5134541;27;20480;-62
2021/09/27 01:29:49;;;;;;;10.30;9.40;;;19.20;99.90;;;;;;5134651;27;20961;-62
2021/09/27 01:32:30;;;;;;;11.57;10.57;;;19.20;99.90;;;;;;5130359;27;20457;-62
2021/09/27 01:35:08;;;;;;;10.27;9.33;;;19.20;99.90;;;;;;5130829;27;20468;-62
2021/09/27 01:37:42;;;;;;;10.20;9.37;;;19.10;99.90;;;;;;5134269;27;20808;-62
2021/09/27 01:40:17;;;;;;;9.80;9.00;;;19.00;99.90;;;;;;5134398;27;20466;-62
2021/09/27 01:42:50;;;;;;;10.83;9.93;;;19.00;99.90;;;;;;5134142;27;20457;-63
2021/09/27 01:45:24;;;;;;;10.10;9.20;;;19.00;99.90;;;;;;5134494;27;20463;-62
2021/09/27 01:48:01;;;;;;;9.73;8.83;;;19.00;99.90;;;;;;5134461;27;20446;-62
2021/09/27 01:50:34;;;;;;;10.10;9.30;;;19.00;99.90;;;;;;5133799;27;20467;-62
2021/09/27 01:53:06;;;;;;;11.87;10.50;;;19.00;99.90;;;;;;5134276;27;20462;-62
2021/09/27 01:55:39;;;;;;;9.60;8.87;;;19.00;99.90;;;;;;5131480;27;20459;-62
2021/09/27 01:58:15;;;;;;;9.80;9.00;;;19.00;99.90;;;;;;5128075;27;20478;-62
2021/09/27 02:00:46;;;;;;;9.87;8.93;;;19.00;99.90;;;;;;5133990;27;20470;-62
2021/09/27 02:03:19;;;;;;;9.80;9.00;;;19.00;99.90;;;;;;5133806;27;20482;-62
2021/09/27 02:05:54;;;;;;;8.93;8.33;;;19.00;99.90;;;;;;5133765;27;20468;-62
2021/09/27 02:08:26;;;;;;;9.30;8.57;;;19.00;99.90;;;;;;5134038;27;20627;-62
2021/09/27 02:10:58;;;;;;;9.10;8.23;;;19.00;99.90;;;;;;5133976;27;20470;-62
2021/09/27 02:13:30;;;;;;;9.37;8.57;;;19.00;99.90;;;;;;5124431;27;20474;-62
2021/09/27 02:16:03;;;;;;;9.10;8.20;;;19.00;99.90;;;;;;5133709;27;20486;-62
2021/09/27 02:18:37;;;;;;;8.80;8.10;;;19.00;99.90;;;;;;5133972;27;20474;-62
2021/09/27 02:21:09;;;;;;;10.27;9.27;;;19.00;99.90;;;;;;5131338;27;20455;-62
2021/09/27 02:23:45;;;;;;;9.97;8.97;;;19.00;99.90;;;;;;5123848;27;20961;-62
2021/09/27 02:26:13;;;;;;;10.13;9.20;;;19.00;99.90;;;;;;5133519;27;20455;-62
2021/09/27 02:28:40;;;;;;;9.00;8.30;;;18.90;99.90;;;;;;5133745;27;20459;-62
2021/09/27 02:31:14;;;;;;;9.70;8.90;;;18.90;99.90;;;;;;5130827;27;20468;-62
2021/09/27 02:33:50;;;;;;;9.30;8.40;;;18.90;99.90;;;;;;5127551;27;20956;-63
2021/09/27 02:36:24;;;;;;;8.43;7.73;;;19.00;99.90;;;;;;5133308;27;20439;-63
2021/09/27 02:38:58;;;;;;;10.60;9.63;;;18.90;99.90;;;;;;5133735;27;20468;-62
2021/09/27 02:41:29;;;;;;;8.93;8.23;;;18.90;99.90;;;;;;5133191;27;20455;-62
2021/09/27 02:43:56;;;;;;;9.40;8.70;;;18.90;99.90;;;;;;5133433;27;20466;-62
2021/09/27 02:46:24;;;;;;;9.00;8.30;;;18.90;99.90;;;;;;5133269;27;20460;-62
2021/09/27 02:48:57;;;;;;;9.40;8.53;;;18.80;99.90;;;;;;5133367;27;20485;-62
2021/09/27 02:51:25;;;;;;;9.57;8.87;;;18.80;99.90;;;;;;5132983;27;20508;-62
2021/09/27 02:53:53;;;;;;;9.87;9.07;;;18.80;99.90;;;;;;5133523;27;20460;-62
2021/09/27 02:56:47;;;;;;;12.23;9.97;;;18.80;99.90;;;;;;5132622;27;20466;-62
2021/09/27 02:59:22;;;;;;;9.00;8.30;;;18.70;99.90;;;;;;5131231;27;20471;-62
2021/09/27 03:01:54;;;;;;;9.00;8.30;;;18.70;99.90;;;;;;5133391;27;20463;-62
2021/09/27 03:04:37;;;;;;;10.20;9.40;;;18.70;99.90;;;;;;5132366;27;20937;-62
2021/09/27 03:07:16;;;;;;;9.87;9.07;;;18.70;99.90;;;;;;5132729;27;20466;-62
2021/09/27 03:09:53;;;;;;;8.83;8.03;;;18.70;99.90;;;;;;5133517;27;20498;-62
2021/09/27 03:12:31;;;;;;;9.97;9.07;;;18.80;99.90;;;;;;5137006;27;20459;-62
2021/09/27 03:15:41;;;;;;;8.80;8.10;;;18.80;99.90;;;;;;5137539;27;20474;-62
2021/09/27 03:18:16;;;;;;;10.57;9.57;;;18.80;99.90;;;;;;5130948;27;20451;-62
2021/09/27 03:20:58;;;;;;;8.53;7.93;;;18.80;99.90;;;;;;5137375;27;20461;-62
2021/09/27 03:23:36;;;;;;;9.33;8.53;;;18.90;99.90;;;;;;5131616;27;20474;-62
2021/09/27 03:26:14;;;;;;;11.10;10.00;;;18.90;99.90;;;;;;5137560;27;20800;-62
2021/09/27 03:28:53;;;;;;;9.93;9.13;;;18.90;99.90;;;;;;5136269;27;20472;-62
2021/09/27 03:31:29;;;;;;;9.37;8.67;;;18.90;99.90;;;;;;5134957;27;20468;-62
2021/09/27 03:34:07;;;;;;;9.33;8.10;;;18.90;99.90;;;;;;5130862;27;21199;-63
2021/09/27 03:36:51;;;;;;;10.10;9.30;;;18.90;99.90;;;;;;5134986;27;20536;-62
2021/09/27 03:39:28;;;;;;;8.77;8.07;;;18.90;99.90;;;;;;5136490;27;20469;-62
2021/09/27 03:42:03;;;;;;;9.90;9.00;;;18.90;99.90;;;;;;5136776;27;20801;-63
2021/09/27 03:44:39;;;;;;;9.40;8.60;;;18.90;99.90;;;;;;5136707;27;20470;-62
2021/09/27 03:47:11;;;;;;;11.10;10.10;;;18.90;99.90;;;;;;5136509;27;21214;-62
2021/09/27 03:49:46;;;;;;;10.20;9.30;;;18.90;99.90;;;;;;5136641;27;20460;-62
2021/09/27 03:52:20;;;;;;;9.17;8.43;;;18.90;99.90;;;;;;5136524;27;20457;-62
2021/09/27 03:54:52;;;;;;;9.20;8.40;;;18.90;99.90;;;;;;5127522;27;20471;-62
2021/09/27 03:57:25;;;;;;;10.20;9.40;;;19.00;99.90;;;;;;5135638;27;20447;-62
2021/09/27 03:59:57;;;;;;;10.63;9.57;;;19.00;99.90;;;;;;5136594;27;20817;-62
2021/09/27 04:02:32;;;;;;;10.63;9.83;;;19.00;99.90;;;;;;5136169;27;20554;-62
2021/09/27 04:05:04;;;;;;;9.10;8.20;;;19.00;99.90;;;;;;5134952;27;20463;-62
2021/09/27 04:07:46;;;;;;;10.67;9.47;;;19.00;99.90;;;;;;5135281;27;20459;-62
2021/09/27 04:10:20;;;;;;;9.83;8.97;;;19.00;99.90;;;;;;5129423;27;20471;-62
2021/09/27 04:13:00;;;;;;;9.13;8.33;;;19.00;99.90;;;;;;5134753;27;20463;-62
2021/09/27 04:15:47;;;;;;;10.47;9.20;;;19.00;99.90;;;;;;5134715;27;21517;-61
2021/09/27 04:18:26;;;;;;;9.43;8.57;;;19.00;99.90;;;;;;5134560;27;20459;-62
2021/09/27 04:21:04;;;;;;;10.10;9.30;;;19.00;99.90;;;;;;5134492;27;20478;-62
2021/09/27 04:23:52;;;;;;;10.07;9.17;;;19.00;99.90;;;;;;5134517;27;20469;-62
2021/09/27 04:26:27;;;;;;;10.60;9.60;;;18.90;99.90;;;;;;5134613;27;20464;-62
2021/09/27 04:29:22;;;;;;;9.17;8.47;;;18.90;99.90;;;;;;5134554;27;20463;-62
2021/09/27 04:32:00;;;;;;;10.67;9.73;;;18.90;99.90;;;;;;5132873;27;21170;-62
2021/09/27 04:34:49;;;;;;;11.27;10.20;;;19.00;99.90;;;;;;5130747;27;20560;-62
2021/09/27 04:37:18;;;;;;;10.27;9.40;;;19.00;99.90;;;;;;5134444;27;20469;-62
2021/09/27 04:39:48;;;;;;;10.60;9.70;;;19.00;99.90;;;;;;5134568;27;20474;-62
2021/09/27 04:42:43;;;;;;;9.30;8.60;;;18.90;99.90;;;;;;5134239;27;20532;-62
2021/09/27 04:45:21;;;;;;;9.67;8.77;;;19.00;99.90;;;;;;5094853;27;20460;-62
2021/09/27 04:47:57;;;;;;;9.40;8.67;;;19.00;99.90;;;;;;5134555;27;20474;-62
2021/09/27 04:50:38;;;;;;;10.53;9.50;;;19.00;99.90;;;;;;5134276;27;20916;-62
2021/09/27 04:53:21;;;;;;;10.43;9.20;;;19.00;99.90;;;;;;5128793;27;20459;-61
2021/09/27 04:56:05;;;;;;;9.40;8.60;;;19.10;99.90;;;;;;5134524;27;20862;-62
2021/09/27 04:58:48;;;;;;;10.27;9.47;;;19.10;99.90;;;;;;5134029;27;20462;-62
2021/09/27 05:01:37;;;;;;;11.07;10.17;;;19.10;99.90;;;;;;5131961;27;20473;-62
2021/09/27 05:04:25;;;;;;;10.77;9.97;;;19.10;99.90;;;;;;5089433;27;1212675;-62
2021/09/27 05:07:24;;;;;;;9.80;9.00;;;19.10;99.90;;;;;;5134400;27;20210;-62
2021/09/27 05:10:05;;;;;;;12.03;10.83;;;19.10;99.90;;;;;;5101429;27;20543;-62
2021/09/27 05:12:55;;;;;;;10.70;9.70;;;19.00;99.90;;;;;;5135462;27;20470;-62
2021/09/27 05:15:41;;;;;;;9.97;9.10;;;19.00;99.90;;;;;;5135155;27;20455;-62
2021/09/27 05:18:28;;;;;;;10.87;9.77;;;19.00;99.90;;;;;;5135032;27;20463;-62
2021/09/27 05:21:13;;;;;;;11.07;10.17;;;19.00;99.90;;;;;;5135293;27;20563;-62
2021/09/27 05:23:49;;;;;;;11.60;10.60;;;18.90;99.90;;;;;;5135260;27;20468;-62
2021/09/27 05:26:36;;;;;;;11.77;10.77;;;18.90;99.90;;;;;;5135042;27;20461;-62
2021/09/27 05:29:27;;;;;;;11.50;10.30;;;19.00;99.90;;;;;;5134486;27;20460;-62
2021/09/27 05:32:11;;;;;;;13.47;12.10;;;19.00;99.90;;;;;;5134394;27;20473;-62
2021/09/27 05:34:47;;;;;;;11.73;10.73;;;19.00;99.90;;;;;;5134413;27;20984;-62
2021/09/27 05:37:28;;;;;;;11.40;10.20;;;19.00;99.90;;;;;;5135087;27;20812;-62
2021/09/27 05:40:06;;;;;;;10.20;9.20;;;19.00;99.90;;;;;;5135254;27;20463;-62
2021/09/27 05:42:41;;;;;;;11.40;10.30;;;19.10;99.90;;;;;;5134680;27;21735;-62
2021/09/27 05:45:22;;;;;;;10.43;9.40;;;19.10;99.90;;;;;;5134286;27;20470;-61
2021/09/27 05:47:58;;;;;;;10.57;9.60;;;19.00;99.90;;;;;;5134806;27;20840;-62
2021/09/27 05:50:33;;;;;;;10.80;9.90;;;19.00;99.90;;;;;;5134175;27;20472;-62
2021/09/27 05:53:08;;;;;;;10.60;9.70;;;19.00;99.90;;;;;;5134557;27;20463;-61
2021/09/27 05:55:45;;;;;;;10.33;9.33;;;19.00;99.90;;;;;;5134232;27;20959;-62
2021/09/27 05:58:15;;;;;;;13.30;12.10;;;19.10;99.90;;;;;;5133730;27;20463;-62
2021/09/27 06:00:52;;;;;;;11.30;10.30;;;19.10;99.90;;;;;;5134766;27;20455;-62
2021/09/27 06:03:47;;;;;;;9.90;9.10;;;19.10;99.90;;;;;;5133869;27;20971;-63
2021/09/27 06:06:26;;;;;;;11.37;9.70;;;19.10;99.90;;;;;;5133188;27;20470;-62
2021/09/27 06:09:01;;;;;;;11.27;10.07;;;19.20;99.90;;;;;;5134081;27;20478;-62
2021/09/27 06:11:38;;;;;;;9.97;9.20;;;19.20;99.90;;;;;;5134006;27;20463;-62
2021/09/27 06:14:06;;;;;;;10.93;9.93;;;19.20;99.90;;;;;;5134233;27;20459;-62
2021/09/27 06:16:48;;;;;;;11.57;10.53;;;19.30;99.90;;;;;;5133663;27;20462;-62
2021/09/27 06:19:22;;;;;;;10.83;9.93;;;19.30;99.90;;;;;;5133796;27;20475;-62
2021/09/27 06:22:07;;;;;;;12.00;10.90;;;19.30;99.90;;;;;;5134179;27;20794;-62
2021/09/27 06:24:45;;;;;;;12.97;11.67;;;19.30;99.90;;;;;;5133522;27;20458;-62
2021/09/27 06:27:22;;;;;;;12.30;11.20;;;19.40;99.90;;;;;;5133527;27;20481;-62
2021/09/27 06:29:59;;;;;;;10.90;9.90;;;19.40;99.90;;;;;;5133786;27;20495;-62
2021/09/27 06:32:36;;;;;;;11.47;10.37;;;19.40;99.90;;;;;;5133524;27;20474;-62
2021/09/27 06:35:07;;;;;;;11.53;10.43;;;19.40;99.90;;;;;;5132036;27;20474;-62
2021/09/27 06:37:35;;;;;;;10.47;9.67;;;19.50;99.90;;;;;;5133416;27;20520;-63
2021/09/27 06:40:05;;;;;;;11.60;10.70;;;19.40;99.90;;;;;;5133830;27;20466;-62
2021/09/27 06:42:32;;;;;;;11.67;10.50;;;19.50;99.90;;;;;;5133551;27;20463;-62
2021/09/27 06:44:59;;;;;;;12.00;10.90;;;19.50;99.90;;;;;;5133462;27;20466;-62
2021/09/27 06:47:27;;;;;;;13.53;12.20;;;19.50;99.90;;;;;;5133188;27;20474;-62
2021/09/27 06:49:54;;;;;;;12.60;11.33;;;19.50;99.90;;;;;;5133823;27;20467;-62
2021/09/27 06:52:21;;;;;;;11.87;10.87;;;19.50;99.90;;;;;;5133218;27;20463;-61
2021/09/27 06:54:48;;;;;;;12.17;11.03;;;19.60;99.90;;;;;;5133616;27;20470;-62
2021/09/27 06:57:15;;;;;;;10.40;9.60;;;19.60;99.90;;;;;;5133187;27;20812;-61
2021/09/27 06:59:41;;;;;;;11.20;10.20;;;19.60;99.90;;;;;;5133557;27;20469;-62
2021/09/27 07:02:08;;;;;;;12.03;10.90;;;19.70;99.90;;;;;;5133693;27;20463;-62
2021/09/27 07:04:37;;;;;;;12.87;11.53;;;19.70;99.90;;;;;;5133355;27;20795;-61
2021/09/27 07:07:04;;;;;;;12.70;11.60;;;19.70;99.90;;;;;;5133554;27;20468;-61
2021/09/27 07:09:31;;;;;;;11.73;10.30;;;19.70;99.90;;;;;;5133024;27;20459;-62
2021/09/27 07:11:58;;;;;;;11.67;9.90;;;19.80;99.90;;;;;;5133548;27;20478;-61
2021/09/27 07:14:25;;;;;;;10.27;9.40;;;19.80;99.90;;;;;;5132860;27;20468;-62
2021/09/27 07:16:52;;;;;;;11.27;10.37;;;19.80;99.90;;;;;;5133400;27;20473;-62
2021/09/27 07:19:18;;;;;;;10.70;9.70;;;19.90;99.90;;;;;;5133072;27;20467;-62
2021/09/27 07:21:47;;;;;;;11.70;10.70;;;19.90;99.90;;;;;;5133238;27;20455;-62
2021/09/27 07:24:15;;;;;;;10.03;9.13;;;19.90;99.90;;;;;;5133279;27;20489;-62
2021/09/27 07:26:42;;;;;;;11.30;10.40;;;19.90;99.90;;;;;;5133165;27;20536;-62
2021/09/27 07:29:09;;;;;;;12.57;11.37;;;20.00;99.90;;;;;;5133274;27;20468;-63
2021/09/27 07:31:37;;;;;;;10.63;9.83;;;20.00;99.90;;;;;;5133060;27;20467;-62
2021/09/27 07:34:06;;;;;;;11.63;10.63;;;20.00;99.90;;;;;;5132786;27;20459;-63
2021/09/27 07:36:34;;;;;;;10.67;9.70;;;20.10;99.90;;;;;;5132907;27;20460;-63
2021/09/27 07:39:03;;;;;;;11.00;10.00;;;20.10;99.90;;;;;;5133210;27;20473;-62
2021/09/27 07:41:31;;;;;;;12.43;11.20;;;20.20;99.90;;;;;;5132976;27;20478;-61
2021/09/27 07:43:58;;;;;;;12.30;11.10;;;20.20;99.90;;;;;;5133022;27;20475;-61
2021/09/27 07:46:26;;;;;;;12.23;11.17;;;20.20;99.90;;;;;;5132695;27;20945;-60
2021/09/27 07:48:53;;;;;;;13.63;12.23;;;20.20;99.90;;;;;;5133021;27;20468;-61
2021/09/27 07:51:20;;;;;;;12.63;11.43;;;20.20;99.90;;;;;;5132669;27;20469;-61
2021/09/27 07:53:47;;;;;;;12.67;11.47;;;20.20;99.90;;;;;;5133304;27;20459;-61
2021/09/27 07:56:16;;;;;;;11.83;10.63;;;20.30;99.90;;;;;;5134159;27;20459;-62
2021/09/27 07:58:42;;;;;;;11.73;10.67;;;20.30;99.90;;;;;;5136277;27;20460;-61
2021/09/27 08:01:10;;;;;;;11.17;10.13;;;20.40;99.90;;;;;;5136560;27;20464;-61
2021/09/27 08:03:37;;;;;;;12.00;10.67;;;20.40;99.90;;;;;;5136003;27;20516;-61
2021/09/27 08:06:04;;;;;;;11.17;9.97;;;20.40;99.90;;;;;;5136796;27;20524;-62
2021/09/27 08:08:31;;;;;;;11.20;10.10;;;20.50;99.90;;;;;;5136151;27;20463;-61
2021/09/27 08:10:58;;;;;;;12.27;10.47;;;20.60;99.90;;;;;;5136537;27;20477;-61
2021/09/27 08:13:26;;;;;;;12.07;10.83;;;20.60;99.90;;;;;;5136063;27;20460;-62
2021/09/27 08:15:55;;;;;;;10.60;9.57;;;20.70;99.90;;;;;;5136374;27;20470;-62
2021/09/27 08:18:23;;;;;;;11.53;10.53;;;20.70;99.90;;;;;;5135583;27;20466;-60
2021/09/27 08:20:53;;;;;;;10.83;9.47;;;20.80;99.90;;;;;;5136354;27;20459;-61
2021/09/27 08:23:21;;;;;;;10.70;9.80;;;20.80;99.90;;;;;;5136334;27;20801;-61
2021/09/27 08:25:48;;;;;;;10.93;9.57;;;20.80;99.90;;;;;;5135631;27;20459;-61
2021/09/27 08:28:19;;;;;;;9.93;9.17;;;20.80;99.90;;;;;;5135706;27;20460;-61
2021/09/27 08:30:51;;;;;;;9.97;9.07;;;20.80;99.90;;;;;;5135984;27;20466;-62
2021/09/27 08:33:19;;;;;;;10.40;9.50;;;20.90;99.90;;;;;;5135794;27;20466;-61
2021/09/27 08:35:46;;;;;;;10.03;9.13;;;20.90;99.90;;;;;;5135709;27;20948;-61
2021/09/27 08:38:15;;;;;;;9.20;8.50;;;21.00;99.90;;;;;;5136246;27;20456;-61
2021/09/27 08:40:58;;;;;;;10.33;9.63;;;21.00;99.90;;;;;;5135605;27;20466;-61
2021/09/27 08:43:40;;;;;;;10.20;9.27;;;21.10;99.90;;;;;;5135506;27;20816;-61
2021/09/27 08:46:12;;;;;;;10.50;9.60;;;21.10;99.90;;;;;;5135829;27;20460;-61
2021/09/27 08:48:43;;;;;;;10.63;9.77;;;21.10;99.90;;;;;;5135365;27;20790;-61
2021/09/27 08:51:10;;;;;;;10.37;9.47;;;21.10;99.90;;;;;;5135566;27;20478;-61
2021/09/27 08:53:39;;;;;;;11.57;10.57;;;21.10;99.90;;;;;;5135290;27;20467;-61
2021/09/27 08:56:12;;;;;;;10.40;9.60;;;21.10;99.90;;;;;;5135905;27;20470;-61
2021/09/27 08:58:49;;;;;;;10.40;9.50;;;21.20;99.90;;;;;;5135451;27;20464;-61
2021/09/27 09:01:22;;;;;;;11.10;10.20;;;21.20;99.90;;;;;;5135412;27;20467;-62
2021/09/27 09:03:55;;;;;;;10.77;9.87;;;21.30;99.90;;;;;;5135157;27;20490;-62
2021/09/27 09:06:28;;;;;;;10.50;9.60;;;21.40;99.90;;;;;;5135619;27;20547;-62
2021/09/27 09:09:02;;;;;;;11.20;10.27;;;21.40;99.90;;;;;;5133823;27;20467;-61
2021/09/27 09:11:37;;;;;;;10.80;9.90;;;21.30;99.90;;;;;;5135653;27;20979;-62
2021/09/27 09:14:16;;;;;;;9.70;8.80;;;21.40;99.90;;;;;;5135309;27;20462;-62
2021/09/27 09:16:45;;;;;;;8.90;8.30;;;21.40;99.90;;;;;;5135046;27;20467;-62
2021/09/27 09:19:15;;;;;;;9.30;8.30;;;21.30;99.90;;;;;;5135073;27;20472;-62
2021/09/27 09:21:51;;;;;;;10.37;9.47;;;21.30;99.90;;;;;;5135005;27;20460;-63
2021/09/27 09:24:21;;;;;;;8.90;7.90;;;21.30;99.90;;;;;;5135223;27;20466;-61
2021/09/27 09:26:50;;;;;;;10.47;9.40;;;21.30;99.90;;;;;;5134723;27;20876;-61
2021/09/27 09:29:25;;;;;;;10.30;9.50;;;21.30;99.90;;;;;;5134821;27;20467;-62
2021/09/27 09:31:58;;;;;;;11.17;10.27;;;21.30;99.90;;;;;;5134641;27;20459;-61
2021/09/27 09:34:35;;;;;;;11.20;10.30;;;21.30;99.90;;;;;;5134659;27;20452;-61
2021/09/27 09:37:08;;;;;;;12.97;10.67;;;21.20;99.90;;;;;;5134482;27;20459;-61
2021/09/27 09:39:37;;;;;;;10.90;9.90;;;21.20;99.90;;;;;;5134785;27;20475;-61
2021/09/27 09:42:07;;;;;;;9.80;9.07;;;21.30;99.90;;;;;;5134322;27;20937;-62
2021/09/27 09:44:41;;;;;;;10.60;9.73;;;21.30;99.90;;;;;;5134786;27;20816;-61
2021/09/27 09:47:11;;;;;;;10.13;9.27;;;21.30;99.90;;;;;;5134288;27;20462;-61
2021/09/27 09:49:52;;;;;;;9.80;8.90;;;21.40;99.90;;;;;;5134429;27;21082;-61
2021/09/27 09:52:25;;;;;;;9.37;8.53;;;21.40;99.90;;;;;;5135155;27;20463;-60
2021/09/27 09:54:53;;;;;;;10.23;9.43;;;21.40;99.90;;;;;;5134437;27;20452;-61
2021/09/27 09:57:28;;;;;;;12.37;11.30;;;21.40;99.90;;;;;;5134391;27;20468;-61
2021/09/27 10:00:00;;;;;;;11.97;10.60;;;21.40;99.90;;;;;;5133985;27;20496;-61
2021/09/27 10:02:29;;;;;;;11.93;10.60;;;21.40;99.90;;;;;;5134392;27;20478;-61
2021/09/27 10:05:11;;;;;;;13.70;10.60;;;21.30;99.90;;;;;;5133972;27;20462;-61
2021/09/27 10:07:47;;;;;;;11.40;10.50;;;21.30;99.90;;;;;;5133747;27;20487;-61
2021/09/27 10:10:31;;;;;;;10.20;9.40;;;21.30;99.90;;;;;;5134156;27;20474;-61
2021/09/27 10:13:00;;;;;;;14.40;10.87;;;21.40;99.90;;;;;;5133452;27;20478;-61
2021/09/27 10:15:46;;;;;;;11.90;11.00;;;21.40;99.90;;;;;;5134297;27;20470;-61
2021/09/27 10:18:25;;;;;;;10.27;9.50;;;21.50;99.90;;;;;;5134362;27;20455;-61
2021/09/27 10:21:03;;;;;;;14.83;11.70;;;21.50;99.90;;;;;;5134467;27;20459;-61
2021/09/27 10:23:33;;;;;;;10.30;9.50;;;21.50;99.90;;;;;;5134793;27;20531;-61
2021/09/27 10:26:14;;;;;;;10.60;9.70;;;21.50;99.90;;;;;;5133582;27;20452;-61
2021/09/27 10:28:42;;;;;;;9.67;8.97;;;21.60;99.90;;;;;;5133359;27;20812;-62
2021/09/27 10:31:13;;;;;;;10.60;9.70;;;21.60;99.90;;;;;;5133945;27;20470;-62
2021/09/27 10:33:47;;;;;;;10.13;9.33;;;21.60;99.90;;;;;;5131803;27;20463;-61
2021/09/27 10:36:20;;;;;;;13.90;12.60;;;21.70;99.90;;;;;;5133059;27;20480;-62
2021/09/27 10:38:52;;;;;;;10.87;9.87;;;21.70;99.90;;;;;;5132709;27;20468;-62
2021/09/27 10:41:24;;;;;;;12.00;10.83;;;21.70;99.90;;;;;;5132888;27;20463;-62
2021/09/27 10:43:54;;;;;;;11.63;10.60;;;21.70;99.90;;;;;;5132494;27;20474;-61
2021/09/27 10:46:28;;;;;;;11.90;10.73;;;21.70;99.90;;;;;;5132464;27;20467;-62
2021/09/27 10:48:57;;;;;;;12.47;11.40;;;21.70;99.90;;;;;;5132575;27;20475;-61
2021/09/27 10:51:30;;;;;;;10.87;9.87;;;21.70;99.90;;;;;;5133959;27;20555;-62
2021/09/27 10:54:04;;;;;;;11.73;10.73;;;21.70;99.90;;;;;;5133277;27;21176;-62
2021/09/27 10:56:37;;;;;;;13.30;12.20;;;21.70;99.90;;;;;;5133508;27;20470;-62
2021/09/27 10:59:06;;;;;;;12.37;11.37;;;21.80;99.90;;;;;;5133139;27;20459;-61
2021/09/27 11:01:40;;;;;;;12.10;10.90;;;21.80;99.90;;;;;;5123169;27;20801;-62
2021/09/27 11:04:14;;;;;;;11.20;10.13;;;21.80;99.90;;;;;;5123752;27;20983;-62
2021/09/27 11:06:53;;;;;;;11.27;10.23;;;21.90;99.90;;;;;;5133454;27;20464;-61
2021/09/27 11:09:32;;;;;;;12.80;11.70;;;21.90;99.90;;;;;;5133423;27;20455;-61
2021/09/27 11:12:04;;;;;;;12.23;11.03;;;21.90;99.90;;;;;;5126781;27;20475;-62
2021/09/27 11:14:48;;;;;;;10.90;9.97;;;21.90;99.90;;;;;;5132788;27;20540;-61
2021/09/27 11:17:40;;;;;;;11.27;10.37;;;22.00;99.90;;;;;;5132610;27;20474;-62
2021/09/27 11:20:49;;;;;;;12.53;11.20;;;22.10;99.90;;;;;;5132519;27;20808;-60
2021/09/27 11:23:29;;;;;;;10.60;9.80;;;22.00;99.90;;;;;;5132264;27;20467;-61
2021/09/27 11:26:30;;;;;;;10.97;9.97;;;22.10;99.90;;;;;;5133034;27;20471;-62
2021/09/27 11:29:19;;;;;;;9.93;9.13;;;22.10;99.90;;;;;;5132592;27;20468;-61
2021/09/27 11:31:48;;;;;;;11.30;10.40;;;22.20;99.90;;;;;;5128633;27;20899;-62
2021/09/27 11:34:31;;;;;;;16.13;10.70;;;22.30;99.90;;;;;;5136336;27;20546;-61
2021/09/27 11:37:15;;;;;;;10.70;9.80;;;22.20;99.90;;;;;;5136777;27;20816;-61
2021/09/27 11:39:47;;;;;;;11.20;10.20;;;22.30;99.90;;;;;;5123663;27;20464;-62
2021/09/27 11:42:32;;;;;;;15.80;11.23;;;22.30;99.90;;;;;;5136451;27;20481;-62
2021/09/27 11:45:28;;;;;;;10.70;9.77;;;22.30;99.90;;;;;;5136305;27;20499;-61
2021/09/27 11:48:05;;;;;;;8.83;8.03;;;22.30;99.90;;;;;;5124430;27;20467;-61
2021/09/27 11:51:25;;;;;;;11.03;9.93;;;22.30;99.90;;;;;;5131739;27;20466;-62
2021/09/27 11:54:02;;;;;;;11.73;10.53;;;22.30;99.90;;;;;;5132997;27;20796;-61
2021/09/27 11:56:40;;;;;;;11.37;10.27;;;22.30;99.90;;;;;;5136481;27;20467;-62
2021/09/27 11:59:12;;;;;;;10.57;9.57;;;22.30;99.90;;;;;;5135878;27;20462;-61
2021/09/27 12:01:47;;;;;;;9.47;8.63;;;22.30;99.90;;;;;;5136505;27;20455;-62
2021/09/27 12:04:30;;;;;;;10.60;9.70;;;22.30;99.90;;;;;;5136141;27;21230;-61
2021/09/27 12:07:02;;;;;;;10.70;9.60;;;22.30;99.90;;;;;;5135749;27;20475;-61
2021/09/27 12:09:36;;;;;;;9.10;8.40;;;22.30;99.90;;;;;;5130748;27;20816;-62
2021/09/27 12:12:06;;;;;;;8.73;8.10;;;22.30;99.90;;;;;;5126254;27;20779;-61
2021/09/27 12:14:45;;;;;;;9.20;8.50;;;22.30;99.90;;;;;;5136357;27;20466;-62
2021/09/27 12:17:17;;;;;;;11.33;9.70;;;22.30;99.90;;;;;;5135618;27;20459;-61
2021/09/27 12:19:49;;;;;;;10.10;9.10;;;22.30;99.90;;;;;;5133612;27;20475;-62
2021/09/27 12:22:21;;;;;;;12.17;11.07;;;22.30;99.90;;;;;;5135789;27;20511;-62
2021/09/27 12:24:50;;;;;;;11.30;10.33;;;22.30;99.90;;;;;;5136230;27;20490;-61
2021/09/27 12:27:21;;;;;;;12.80;11.60;;;22.40;99.90;;;;;;5129459;27;20798;-61
2021/09/27 12:29:56;;;;;;;12.93;11.83;;;22.40;99.90;;;;;;5134229;27;20525;-62
2021/09/27 12:32:27;;;;;;;11.50;10.50;;;22.40;99.90;;;;;;5133973;27;20459;-62
2021/09/27 12:34:54;;;;;;;10.53;9.40;;;22.40;99.90;;;;;;5134093;27;20512;-62
2021/09/27 12:37:23;;;;;;;8.50;7.80;;;22.50;99.90;;;;;;5133539;27;20475;-61
2021/09/27 12:39:50;;;;;;;10.23;9.20;;;22.50;99.90;;;;;;5134246;27;21056;-61
2021/09/27 12:42:21;;;;;;;10.63;9.70;;;22.50;99.90;;;;;;5133389;27;20459;-61
2021/09/27 12:44:55;;;;;;;10.47;9.57;;;22.50;99.90;;;;;;5135371;27;20485;-61
2021/09/27 12:47:22;;;;;;;9.07;8.37;;;22.60;99.90;;;;;;5123119;27;20459;-61
2021/09/27 12:49:54;;;;;;;9.63;8.77;;;22.60;99.90;;;;;;5134066;27;20471;-61
2021/09/27 12:52:32;;;;;;;10.50;8.90;;;22.60;99.90;;;;;;5135283;27;20961;-61
2021/09/27 12:55:00;;;;;;;16.43;14.83;;;22.70;99.90;;;;;;5122771;27;20467;-61
2021/09/27 12:57:34;;;;;;;18.50;16.80;;;22.70;99.90;;;;;;5135306;27;21258;-61
2021/09/27 13:00:02;;;;;;;13.10;11.90;;;22.70;99.90;;;;;;5135710;27;20513;-61
2021/09/27 13:02:35;;;;;;;13.60;12.37;;;22.70;99.90;;;;;;5135226;27;20451;-61
2021/09/27 13:05:11;;;;;;;10.93;10.03;;;22.70;99.90;;;;;;5135325;27;21040;-61
2021/09/27 13:07:41;;;;;;;10.20;9.40;;;22.70;99.90;;;;;;5135273;27;21223;-61
2021/09/27 13:10:27;;;;;;;11.47;10.57;;;22.70;99.90;;;;;;5135310;27;20463;-61
2021/09/27 13:13:09;;;;;;;10.13;9.30;;;22.70;99.90;;;;;;5129513;27;20461;-61